sensor_id;sensor_type;location;lat;lon;timestamp;temperature;humidity
18101;DHT22;9177;49.156;8.142;2023-05-07T00:01:29;21.90;98.60
18101;DHT22;9177;49.156;8.142;2023-05-07T00:03:58;21.90;98.60
18101;DHT22;9177;49.156;8.142;2023-05-07T00:06:25;21.90;98.60
18101;DHT22;9177;49.156;8.142;2023-05-07T00:08:54;21.90;98.60
18101;DHT22;9177;49.156;8.142;2023-05-07T00:11:21;21.80;98.60
18101;DHT22;9177;49.156;8.142;2023-05-07T00:13:48;21.80;98.60
18101;DHT22;9177;49.156;8.142;2023-05-07T00:16:15;21.80;98.60
18101;DHT22;9177;49.156;8.142;2023-05-07T00:18:42;21.90;98.60
18101;DHT22;9177;49.156;8.142;2023-05-07T00:21:10;21.80;98.60
18101;DHT22;9177;49.156;8.142;2023-05-07T00:23:37;21.80;98.60
18101;DHT22;9177;49.156;8.142;2023-05-07T00:26:04;21.80;98.60
18101;DHT22;9177;49.156;8.142;2023-05-07T00:28:31;21.80;98.60
18101;DHT22;9177;49.156;8.142;2023-05-07T00:30:58;21.80;98.60
18101;DHT22;9177;49.156;8.142;2023-05-07T00:33:25;21.80;98.60
18101;DHT22;9177;49.156;8.142;2023-05-07T00:35:52;21.80;98.60
18101;DHT22;9177;49.156;8.142;2023-05-07T00:38:23;21.80;98.60
18101;DHT22;9177;49.156;8.142;2023-05-07T00:40:49;21.80;98.60
18101;DHT22;9177;49.156;8.142;2023-05-07T00:43:17;21.80;98.60
18101;DHT22;9177;49.156;8.142;2023-05-07T00:45:44;21.80;98.60
18101;DHT22;9177;49.156;8.142;2023-05-07T00:48:11;21.80;98.70
18101;DHT22;9177;49.156;8.142;2023-05-07T00:50:38;21.80;98.70
18101;DHT22;9177;49.156;8.142;2023-05-07T00:53:06;21.80;98.70
18101;DHT22;9177;49.156;8.142;2023-05-07T00:55:35;21.80;98.70
18101;DHT22;9177;49.156;8.142;2023-05-07T00:58:02;21.80;98.70
18101;DHT22;9177;49.156;8.142;2023-05-07T01:00:29;21.80;98.70
18101;DHT22;9177;49.156;8.142;2023-05-07T01:02:57;21.80;98.70
18101;DHT22;9177;49.156;8.142;2023-05-07T01:05:24;21.80;98.70
18101;DHT22;9177;49.156;8.142;2023-05-07T01:07:54;21.80;98.70
18101;DHT22;9177;49.156;8.142;2023-05-07T01:10:22;21.80;98.70
18101;DHT22;9177;49.156;8.142;2023-05-07T01:12:51;21.80;98.70
18101;DHT22;9177;49.156;8.142;2023-05-07T01:15:18;21.80;98.70
18101;DHT22;9177;49.156;8.142;2023-05-07T01:17:45;21.80;98.70
18101;DHT22;9177;49.156;8.142;2023-05-07T01:20:12;21.80;98.70
18101;DHT22;9177;49.156;8.142;2023-05-07T01:22:41;21.80;98.70
18101;DHT22;9177;49.156;8.142;2023-05-07T01:25:09;21.80;98.70
18101;DHT22;9177;49.156;8.142;2023-05-07T01:27:36;21.80;98.70
18101;DHT22;9177;49.156;8.142;2023-05-07T01:30:04;21.80;98.70
18101;DHT22;9177;49.156;8.142;2023-05-07T01:32:37;21.80;98.70
18101;DHT22;9177;49.156;8.142;2023-05-07T01:35:08;21.70;98.60
18101;DHT22;9177;49.156;8.142;2023-05-07T01:37:36;21.70;98.70
18101;DHT22;9177;49.156;8.142;2023-05-07T01:40:06;21.70;98.60
18101;DHT22;9177;49.156;8.142;2023-05-07T01:42:33;21.70;98.60
18101;DHT22;9177;49.156;8.142;2023-05-07T01:45:00;21.70;98.60
18101;DHT22;9177;49.156;8.142;2023-05-07T01:47:29;21.80;98.70
18101;DHT22;9177;49.156;8.142;2023-05-07T01:49:57;21.70;98.70
18101;DHT22;9177;49.156;8.142;2023-05-07T01:52:24;21.70;98.70
18101;DHT22;9177;49.156;8.142;2023-05-07T01:54:51;21.70;98.60
18101;DHT22;9177;49.156;8.142;2023-05-07T01:57:20;21.70;98.60
18101;DHT22;9177;49.156;8.142;2023-05-07T01:59:47;21.70;98.60
18101;DHT22;9177;49.156;8.142;2023-05-07T02:02:14;21.70;98.60
18101;DHT22;9177;49.156;8.142;2023-05-07T02:04:41;21.70;98.60
18101;DHT22;9177;49.156;8.142;2023-05-07T02:07:07;21.70;98.60
18101;DHT22;9177;49.156;8.142;2023-05-07T02:09:34;21.70;98.60
18101;DHT22;9177;49.156;8.142;2023-05-07T02:12:01;21.70;98.60
18101;DHT22;9177;49.156;8.142;2023-05-07T02:14:29;21.70;98.60
18101;DHT22;9177;49.156;8.142;2023-05-07T02:16:56;21.70;98.60
18101;DHT22;9177;49.156;8.142;2023-05-07T02:19:23;21.70;98.50
18101;DHT22;9177;49.156;8.142;2023-05-07T02:21:51;21.70;98.60
18101;DHT22;9177;49.156;8.142;2023-05-07T02:24:18;21.70;98.60
18101;DHT22;9177;49.156;8.142;2023-05-07T02:26:45;21.70;98.60
18101;DHT22;9177;49.156;8.142;2023-05-07T02:29:12;21.70;98.60
18101;DHT22;9177;49.156;8.142;2023-05-07T02:31:40;21.70;98.60
18101;DHT22;9177;49.156;8.142;2023-05-07T02:34:07;21.70;98.60
18101;DHT22;9177;49.156;8.142;2023-05-07T02:36:34;21.70;98.60
18101;DHT22;9177;49.156;8.142;2023-05-07T02:39:00;21.70;98.60
18101;DHT22;9177;49.156;8.142;2023-05-07T02:41:28;21.70;98.60
18101;DHT22;9177;49.156;8.142;2023-05-07T02:43:56;21.70;98.60
18101;DHT22;9177;49.156;8.142;2023-05-07T02:46:23;21.60;98.50
18101;DHT22;9177;49.156;8.142;2023-05-07T02:48:51;21.70;98.60
18101;DHT22;9177;49.156;8.142;2023-05-07T02:51:20;21.70;98.60
18101;DHT22;9177;49.156;8.142;2023-05-07T02:53:47;21.70;98.60
18101;DHT22;9177;49.156;8.142;2023-05-07T02:56:14;21.70;98.60
18101;DHT22;9177;49.156;8.142;2023-05-07T02:58:41;21.70;98.60
18101;DHT22;9177;49.156;8.142;2023-05-07T03:01:09;21.60;98.50
18101;DHT22;9177;49.156;8.142;2023-05-07T03:03:36;21.70;98.60
18101;DHT22;9177;49.156;8.142;2023-05-07T03:06:04;21.60;98.60
18101;DHT22;9177;49.156;8.142;2023-05-07T03:08:32;21.70;98.60
18101;DHT22;9177;49.156;8.142;2023-05-07T03:10:59;21.60;98.60
18101;DHT22;9177;49.156;8.142;2023-05-07T03:13:26;21.60;98.60
18101;DHT22;9177;49.156;8.142;2023-05-07T03:15:53;21.60;98.60
18101;DHT22;9177;49.156;8.142;2023-05-07T03:18:19;21.60;98.60
18101;DHT22;9177;49.156;8.142;2023-05-07T03:20:48;21.60;98.60
18101;DHT22;9177;49.156;8.142;2023-05-07T03:23:16;21.60;98.60
18101;DHT22;9177;49.156;8.142;2023-05-07T03:25:43;21.60;98.60
18101;DHT22;9177;49.156;8.142;2023-05-07T03:28:09;21.60;98.60
18101;DHT22;9177;49.156;8.142;2023-05-07T03:30:36;21.60;98.60
18101;DHT22;9177;49.156;8.142;2023-05-07T03:33:06;21.70;98.60
18101;DHT22;9177;49.156;8.142;2023-05-07T03:35:32;21.60;98.60
18101;DHT22;9177;49.156;8.142;2023-05-07T03:37:59;21.60;98.60
18101;DHT22;9177;49.156;8.142;2023-05-07T03:40:27;21.60;98.60
18101;DHT22;9177;49.156;8.142;2023-05-07T03:42:54;21.60;98.60
18101;DHT22;9177;49.156;8.142;2023-05-07T03:45:21;21.60;98.60
18101;DHT22;9177;49.156;8.142;2023-05-07T03:47:48;21.60;98.60
18101;DHT22;9177;49.156;8.142;2023-05-07T03:50:15;21.60;98.60
18101;DHT22;9177;49.156;8.142;2023-05-07T03:52:42;21.60;98.60
18101;DHT22;9177;49.156;8.142;2023-05-07T03:55:10;21.60;98.60
18101;DHT22;9177;49.156;8.142;2023-05-07T03:57:40;21.60;98.60
18101;DHT22;9177;49.156;8.142;2023-05-07T04:00:08;21.60;98.60
18101;DHT22;9177;49.156;8.142;2023-05-07T04:02:35;21.60;98.60
18101;DHT22;9177;49.156;8.142;2023-05-07T04:05:02;21.60;98.60
18101;DHT22;9177;49.156;8.142;2023-05-07T04:07:29;21.60;98.60
18101;DHT22;9177;49.156;8.142;2023-05-07T04:09:56;21.60;98.60
18101;DHT22;9177;49.156;8.142;2023-05-07T04:12:23;21.60;98.60
18101;DHT22;9177;49.156;8.142;2023-05-07T04:14:51;21.60;98.60
18101;DHT22;9177;49.156;8.142;2023-05-07T04:17:18;21.60;98.60
18101;DHT22;9177;49.156;8.142;2023-05-07T04:19:45;21.60;98.60
18101;DHT22;9177;49.156;8.142;2023-05-07T04:22:12;21.60;98.60
18101;DHT22;9177;49.156;8.142;2023-05-07T04:24:39;21.60;98.60
18101;DHT22;9177;49.156;8.142;2023-05-07T04:27:06;21.60;98.60
18101;DHT22;9177;49.156;8.142;2023-05-07T04:29:33;21.60;98.60
18101;DHT22;9177;49.156;8.142;2023-05-07T04:32:01;21.60;98.60
18101;DHT22;9177;49.156;8.142;2023-05-07T04:34:28;21.60;98.60
18101;DHT22;9177;49.156;8.142;2023-05-07T04:36:58;21.60;98.60
18101;DHT22;9177;49.156;8.142;2023-05-07T04:39:25;21.60;98.60
18101;DHT22;9177;49.156;8.142;2023-05-07T04:41:51;21.60;98.60
18101;DHT22;9177;49.156;8.142;2023-05-07T04:44:18;21.60;98.60
18101;DHT22;9177;49.156;8.142;2023-05-07T04:46:45;21.60;98.60
18101;DHT22;9177;49.156;8.142;2023-05-07T04:49:13;21.60;98.60
18101;DHT22;9177;49.156;8.142;2023-05-07T04:51:40;21.50;98.50
18101;DHT22;9177;49.156;8.142;2023-05-07T04:54:08;21.60;98.60
18101;DHT22;9177;49.156;8.142;2023-05-07T04:56:35;21.60;98.60
18101;DHT22;9177;49.156;8.142;2023-05-07T04:59:02;21.50;98.50
18101;DHT22;9177;49.156;8.142;2023-05-07T05:01:29;21.60;98.60
18101;DHT22;9177;49.156;8.142;2023-05-07T05:03:56;21.60;98.60
18101;DHT22;9177;49.156;8.142;2023-05-07T05:06:24;21.50;98.50
18101;DHT22;9177;49.156;8.142;2023-05-07T05:08:51;21.50;98.60
18101;DHT22;9177;49.156;8.142;2023-05-07T05:11:18;21.60;98.60
18101;DHT22;9177;49.156;8.142;2023-05-07T05:13:44;21.50;98.60
18101;DHT22;9177;49.156;8.142;2023-05-07T05:16:13;21.60;98.60
18101;DHT22;9177;49.156;8.142;2023-05-07T05:18:40;21.60;98.60
18101;DHT22;9177;49.156;8.142;2023-05-07T05:21:07;21.50;98.50
18101;DHT22;9177;49.156;8.142;2023-05-07T05:23:35;21.60;98.60
18101;DHT22;9177;49.156;8.142;2023-05-07T05:26:02;21.60;98.60
18101;DHT22;9177;49.156;8.142;2023-05-07T05:28:29;21.60;98.60
18101;DHT22;9177;49.156;8.142;2023-05-07T05:30:56;21.60;98.60
18101;DHT22;9177;49.156;8.142;2023-05-07T05:33:23;21.60;98.60
18101;DHT22;9177;49.156;8.142;2023-05-07T05:35:50;21.60;98.60
18101;DHT22;9177;49.156;8.142;2023-05-07T05:38:17;21.60;98.60
18101;DHT22;9177;49.156;8.142;2023-05-07T05:40:47;21.60;98.90
18101;DHT22;9177;49.156;8.142;2023-05-07T05:43:14;21.60;98.60
18101;DHT22;9177;49.156;8.142;2023-05-07T05:45:41;21.60;98.60
18101;DHT22;9177;49.156;8.142;2023-05-07T05:48:08;21.60;98.60
18101;DHT22;9177;49.156;8.142;2023-05-07T05:50:35;21.60;98.60
18101;DHT22;9177;49.156;8.142;2023-05-07T05:53:02;21.60;98.50
18101;DHT22;9177;49.156;8.142;2023-05-07T05:55:29;21.60;98.60
18101;DHT22;9177;49.156;8.142;2023-05-07T05:57:59;21.60;98.50
18101;DHT22;9177;49.156;8.142;2023-05-07T06:00:26;21.60;98.60
18101;DHT22;9177;49.156;8.142;2023-05-07T06:02:53;21.60;98.60
18101;DHT22;9177;49.156;8.142;2023-05-07T06:05:20;21.60;98.50
18101;DHT22;9177;49.156;8.142;2023-05-07T06:07:47;21.60;98.50
18101;DHT22;9177;49.156;8.142;2023-05-07T06:10:14;21.60;98.50
18101;DHT22;9177;49.156;8.142;2023-05-07T06:12:41;21.60;98.50
18101;DHT22;9177;49.156;8.142;2023-05-07T06:15:10;21.60;98.50
18101;DHT22;9177;49.156;8.142;2023-05-07T06:17:37;21.60;98.50
18101;DHT22;9177;49.156;8.142;2023-05-07T06:20:05;21.60;98.50
18101;DHT22;9177;49.156;8.142;2023-05-07T06:22:32;21.60;98.50
18101;DHT22;9177;49.156;8.142;2023-05-07T06:24:59;21.60;98.50
18101;DHT22;9177;49.156;8.142;2023-05-07T06:27:26;21.60;98.50
18101;DHT22;9177;49.156;8.142;2023-05-07T06:29:53;21.70;98.50
18101;DHT22;9177;49.156;8.142;2023-05-07T06:32:22;21.70;98.50
18101;DHT22;9177;49.156;8.142;2023-05-07T06:34:48;21.60;98.50
18101;DHT22;9177;49.156;8.142;2023-05-07T06:37:15;21.70;98.50
18101;DHT22;9177;49.156;8.142;2023-05-07T06:39:42;21.70;98.50
18101;DHT22;9177;49.156;8.142;2023-05-07T06:42:09;21.70;98.50
18101;DHT22;9177;49.156;8.142;2023-05-07T06:44:36;21.60;98.40
18101;DHT22;9177;49.156;8.142;2023-05-07T06:47:03;21.70;98.50
18101;DHT22;9177;49.156;8.142;2023-05-07T06:49:33;21.70;98.50
18101;DHT22;9177;49.156;8.142;2023-05-07T06:52:00;21.70;98.40
18101;DHT22;9177;49.156;8.142;2023-05-07T06:54:27;21.70;98.40
18101;DHT22;9177;49.156;8.142;2023-05-07T06:56:53;21.70;98.40
18101;DHT22;9177;49.156;8.142;2023-05-07T06:59:21;21.70;98.40
18101;DHT22;9177;49.156;8.142;2023-05-07T07:01:47;21.70;98.40
18101;DHT22;9177;49.156;8.142;2023-05-07T07:04:14;21.70;98.40
18101;DHT22;9177;49.156;8.142;2023-05-07T07:06:42;21.70;98.40
18101;DHT22;9177;49.156;8.142;2023-05-07T07:09:09;21.70;98.40
18101;DHT22;9177;49.156;8.142;2023-05-07T07:11:36;21.70;98.40
18101;DHT22;9177;49.156;8.142;2023-05-07T07:14:03;21.70;98.40
18101;DHT22;9177;49.156;8.142;2023-05-07T07:16:30;21.80;98.40
18101;DHT22;9177;49.156;8.142;2023-05-07T07:18:57;21.70;98.30
18101;DHT22;9177;49.156;8.142;2023-05-07T07:21:24;21.80;98.30
18101;DHT22;9177;49.156;8.142;2023-05-07T07:23:52;21.80;98.30
18101;DHT22;9177;49.156;8.142;2023-05-07T07:26:19;21.80;98.30
18101;DHT22;9177;49.156;8.142;2023-05-07T07:28:46;21.80;98.30
18101;DHT22;9177;49.156;8.142;2023-05-07T07:31:13;21.80;98.30
18101;DHT22;9177;49.156;8.142;2023-05-07T07:33:41;21.80;98.20
18101;DHT22;9177;49.156;8.142;2023-05-07T07:36:08;21.90;98.20
18101;DHT22;9177;49.156;8.142;2023-05-07T07:38:35;21.90;98.20
18101;DHT22;9177;49.156;8.142;2023-05-07T07:41:03;22.00;98.20
18101;DHT22;9177;49.156;8.142;2023-05-07T07:43:30;22.00;98.10
18101;DHT22;9177;49.156;8.142;2023-05-07T07:45:57;22.00;98.10
18101;DHT22;9177;49.156;8.142;2023-05-07T07:48:23;22.00;98.00
18101;DHT22;9177;49.156;8.142;2023-05-07T07:50:51;22.00;98.00
18101;DHT22;9177;49.156;8.142;2023-05-07T07:53:18;22.10;98.00
18101;DHT22;9177;49.156;8.142;2023-05-07T07:55:45;22.10;98.00
18101;DHT22;9177;49.156;8.142;2023-05-07T07:58:13;22.10;98.00
18101;DHT22;9177;49.156;8.142;2023-05-07T08:00:40;22.10;98.00
18101;DHT22;9177;49.156;8.142;2023-05-07T08:03:09;22.10;97.90
18101;DHT22;9177;49.156;8.142;2023-05-07T08:05:36;22.20;97.90
18101;DHT22;9177;49.156;8.142;2023-05-07T08:08:04;22.20;97.90
18101;DHT22;9177;49.156;8.142;2023-05-07T08:10:31;22.20;97.90
18101;DHT22;9177;49.156;8.142;2023-05-07T08:13:00;22.20;97.90
18101;DHT22;9177;49.156;8.142;2023-05-07T08:15:30;22.20;97.90
18101;DHT22;9177;49.156;8.142;2023-05-07T08:17:58;22.20;97.90
18101;DHT22;9177;49.156;8.142;2023-05-07T08:20:26;22.20;97.90
18101;DHT22;9177;49.156;8.142;2023-05-07T08:22:53;22.20;97.90
18101;DHT22;9177;49.156;8.142;2023-05-07T08:25:19;22.20;97.90
18101;DHT22;9177;49.156;8.142;2023-05-07T08:27:46;22.20;97.90
18101;DHT22;9177;49.156;8.142;2023-05-07T08:30:14;22.20;97.90
18101;DHT22;9177;49.156;8.142;2023-05-07T08:32:42;22.20;97.90
18101;DHT22;9177;49.156;8.142;2023-05-07T08:35:09;22.30;97.80
18101;DHT22;9177;49.156;8.142;2023-05-07T08:37:36;22.30;98.00
18101;DHT22;9177;49.156;8.142;2023-05-07T08:40:07;22.30;98.40
18101;DHT22;9177;49.156;8.142;2023-05-07T08:42:35;22.30;98.50
18101;DHT22;9177;49.156;8.142;2023-05-07T08:45:04;22.40;98.20
18101;DHT22;9177;49.156;8.142;2023-05-07T08:47:40;22.50;98.20
18101;DHT22;9177;49.156;8.142;2023-05-07T08:50:10;22.70;97.90
18101;DHT22;9177;49.156;8.142;2023-05-07T08:52:39;22.80;97.80
18101;DHT22;9177;49.156;8.142;2023-05-07T08:55:07;22.90;98.50
18101;DHT22;9177;49.156;8.142;2023-05-07T08:57:34;22.80;99.00
18101;DHT22;9177;49.156;8.142;2023-05-07T09:00:01;22.90;99.80
18101;DHT22;9177;49.156;8.142;2023-05-07T09:02:29;22.90;99.60
18101;DHT22;9177;49.156;8.142;2023-05-07T09:04:56;23.00;99.60
18101;DHT22;9177;49.156;8.142;2023-05-07T09:07:25;23.00;99.80
18101;DHT22;9177;49.156;8.142;2023-05-07T09:09:51;23.00;99.90
18101;DHT22;9177;49.156;8.142;2023-05-07T09:12:19;23.00;99.90
18101;DHT22;9177;49.156;8.142;2023-05-07T09:14:46;23.10;99.90
18101;DHT22;9177;49.156;8.142;2023-05-07T09:17:13;23.20;99.70
18101;DHT22;9177;49.156;8.142;2023-05-07T09:19:42;23.30;99.80
18101;DHT22;9177;49.156;8.142;2023-05-07T09:22:10;23.30;99.80
18101;DHT22;9177;49.156;8.142;2023-05-07T09:24:38;23.20;99.80
18101;DHT22;9177;49.156;8.142;2023-05-07T09:27:08;23.20;99.80
18101;DHT22;9177;49.156;8.142;2023-05-07T09:29:38;23.10;99.50
18101;DHT22;9177;49.156;8.142;2023-05-07T09:32:07;23.20;99.30
18101;DHT22;9177;49.156;8.142;2023-05-07T09:34:37;23.10;99.50
18101;DHT22;9177;49.156;8.142;2023-05-07T09:37:06;23.10;99.60
18101;DHT22;9177;49.156;8.142;2023-05-07T09:39:41;23.10;99.70
18101;DHT22;9177;49.156;8.142;2023-05-07T09:42:08;23.10;99.70
18101;DHT22;9177;49.156;8.142;2023-05-07T09:44:36;23.10;99.80
18101;DHT22;9177;49.156;8.142;2023-05-07T09:47:05;23.10;99.90
18101;DHT22;9177;49.156;8.142;2023-05-07T09:49:34;23.20;99.90
18101;DHT22;9177;49.156;8.142;2023-05-07T09:52:02;23.20;99.90
18101;DHT22;9177;49.156;8.142;2023-05-07T09:54:33;23.20;99.90
18101;DHT22;9177;49.156;8.142;2023-05-07T09:57:05;23.20;99.90
18101;DHT22;9177;49.156;8.142;2023-05-07T09:59:32;23.20;99.90
18101;DHT22;9177;49.156;8.142;2023-05-07T10:02:00;23.30;99.90
18101;DHT22;9177;49.156;8.142;2023-05-07T10:04:28;23.40;99.90
18101;DHT22;9177;49.156;8.142;2023-05-07T10:06:55;23.40;99.90
18101;DHT22;9177;49.156;8.142;2023-05-07T10:09:23;23.40;99.90
18101;DHT22;9177;49.156;8.142;2023-05-07T10:11:51;23.50;99.90
18101;DHT22;9177;49.156;8.142;2023-05-07T10:14:21;23.50;99.90
18101;DHT22;9177;49.156;8.142;2023-05-07T10:16:48;23.40;99.90
18101;DHT22;9177;49.156;8.142;2023-05-07T10:19:15;23.50;99.90
18101;DHT22;9177;49.156;8.142;2023-05-07T10:21:51;23.50;99.90
18101;DHT22;9177;49.156;8.142;2023-05-07T10:24:25;23.50;99.90
18101;DHT22;9177;49.156;8.142;2023-05-07T10:26:53;23.60;99.90
18101;DHT22;9177;49.156;8.142;2023-05-07T10:29:33;23.70;99.90
18101;DHT22;9177;49.156;8.142;2023-05-07T10:32:15;23.80;99.90
18101;DHT22;9177;49.156;8.142;2023-05-07T10:34:48;23.60;99.90
18101;DHT22;9177;49.156;8.142;2023-05-07T10:37:17;23.70;99.90
18101;DHT22;9177;49.156;8.142;2023-05-07T10:39:44;23.80;99.90
18101;DHT22;9177;49.156;8.142;2023-05-07T10:42:12;23.70;99.90
18101;DHT22;9177;49.156;8.142;2023-05-07T10:44:41;23.60;99.90
18101;DHT22;9177;49.156;8.142;2023-05-07T10:47:09;23.70;99.90
18101;DHT22;9177;49.156;8.142;2023-05-07T10:49:37;23.70;99.90
18101;DHT22;9177;49.156;8.142;2023-05-07T10:52:14;23.80;99.90
18101;DHT22;9177;49.156;8.142;2023-05-07T10:54:42;23.70;99.90
18101;DHT22;9177;49.156;8.142;2023-05-07T10:57:35;23.90;99.90
18101;DHT22;9177;49.156;8.142;2023-05-07T11:00:40;23.90;99.90
18101;DHT22;9177;49.156;8.142;2023-05-07T11:03:08;23.70;99.90
18101;DHT22;9177;49.156;8.142;2023-05-07T11:05:35;23.90;99.90
18101;DHT22;9177;49.156;8.142;2023-05-07T11:08:03;23.70;99.80
18101;DHT22;9177;49.156;8.142;2023-05-07T11:10:52;23.70;99.90
18101;DHT22;9177;49.156;8.142;2023-05-07T11:13:41;23.70;99.80
18101;DHT22;9177;49.156;8.142;2023-05-07T11:16:18;23.80;99.90
18101;DHT22;9177;49.156;8.142;2023-05-07T11:18:47;23.90;99.90
18101;DHT22;9177;49.156;8.142;2023-05-07T11:21:32;24.00;99.90
18101;DHT22;9177;49.156;8.142;2023-05-07T11:24:00;24.10;99.90
18101;DHT22;9177;49.156;8.142;2023-05-07T11:26:41;24.00;99.90
18101;DHT22;9177;49.156;8.142;2023-05-07T11:29:11;23.90;99.90
18101;DHT22;9177;49.156;8.142;2023-05-07T11:31:39;23.90;99.90
18101;DHT22;9177;49.156;8.142;2023-05-07T11:34:06;23.90;99.80
18101;DHT22;9177;49.156;8.142;2023-05-07T11:36:34;23.90;99.80
18101;DHT22;9177;49.156;8.142;2023-05-07T11:39:01;23.90;99.80
18101;DHT22;9177;49.156;8.142;2023-05-07T11:41:37;23.70;99.90
18101;DHT22;9177;49.156;8.142;2023-05-07T11:44:04;23.80;99.90
18101;DHT22;9177;49.156;8.142;2023-05-07T11:46:32;23.90;99.90
18101;DHT22;9177;49.156;8.142;2023-05-07T11:49:01;23.90;99.90
18101;DHT22;9177;49.156;8.142;2023-05-07T11:51:28;23.80;99.80
18101;DHT22;9177;49.156;8.142;2023-05-07T11:53:55;23.90;99.80
18101;DHT22;9177;49.156;8.142;2023-05-07T11:56:23;23.70;99.70
18101;DHT22;9177;49.156;8.142;2023-05-07T11:58:50;23.90;99.90
18101;DHT22;9177;49.156;8.142;2023-05-07T12:01:17;23.90;99.90
18101;DHT22;9177;49.156;8.142;2023-05-07T12:03:45;23.90;99.90
18101;DHT22;9177;49.156;8.142;2023-05-07T12:06:15;23.90;99.80
18101;DHT22;9177;49.156;8.142;2023-05-07T12:08:43;23.70;99.70
18101;DHT22;9177;49.156;8.142;2023-05-07T12:11:14;23.50;99.90
18101;DHT22;9177;49.156;8.142;2023-05-07T12:13:42;23.60;99.80
18101;DHT22;9177;49.156;8.142;2023-05-07T12:16:09;23.70;99.60
18101;DHT22;9177;49.156;8.142;2023-05-07T12:18:37;23.80;99.80
18101;DHT22;9177;49.156;8.142;2023-05-07T12:21:05;23.90;99.70
18101;DHT22;9177;49.156;8.142;2023-05-07T12:23:35;23.80;99.70
18101;DHT22;9177;49.156;8.142;2023-05-07T12:26:03;23.80;99.90
18101;DHT22;9177;49.156;8.142;2023-05-07T12:28:32;23.90;99.90
18101;DHT22;9177;49.156;8.142;2023-05-07T12:31:02;23.90;99.40
18101;DHT22;9177;49.156;8.142;2023-05-07T12:33:30;23.80;99.80
18101;DHT22;9177;49.156;8.142;2023-05-07T12:35:58;23.90;99.70
18101;DHT22;9177;49.156;8.142;2023-05-07T12:38:25;23.90;99.90
18101;DHT22;9177;49.156;8.142;2023-05-07T12:40:54;23.90;99.60
18101;DHT22;9177;49.156;8.142;2023-05-07T12:43:24;23.90;99.50
18101;DHT22;9177;49.156;8.142;2023-05-07T12:45:56;23.90;99.40
18101;DHT22;9177;49.156;8.142;2023-05-07T12:48:24;24.00;99.20
18101;DHT22;9177;49.156;8.142;2023-05-07T12:50:53;24.10;99.10
18101;DHT22;9177;49.156;8.142;2023-05-07T12:53:21;24.20;99.20
18101;DHT22;9177;49.156;8.142;2023-05-07T12:55:50;24.40;99.40
18101;DHT22;9177;49.156;8.142;2023-05-07T12:58:20;24.40;99.10
18101;DHT22;9177;49.156;8.142;2023-05-07T13:00:48;24.60;98.90
18101;DHT22;9177;49.156;8.142;2023-05-07T13:03:21;24.60;98.30
18101;DHT22;9177;49.156;8.142;2023-05-07T13:05:49;24.70;98.40
18101;DHT22;9177;49.156;8.142;2023-05-07T13:08:30;24.70;98.30
18101;DHT22;9177;49.156;8.142;2023-05-07T13:10:58;24.70;98.50
18101;DHT22;9177;49.156;8.142;2023-05-07T13:13:27;24.80;98.60
18101;DHT22;9177;49.156;8.142;2023-05-07T13:15:54;24.80;98.70
18101;DHT22;9177;49.156;8.142;2023-05-07T13:18:21;24.80;98.70
18101;DHT22;9177;49.156;8.142;2023-05-07T13:20:48;24.80;98.70
18101;DHT22;9177;49.156;8.142;2023-05-07T13:23:15;24.80;98.30
18101;DHT22;9177;49.156;8.142;2023-05-07T13:25:41;24.70;98.60
18101;DHT22;9177;49.156;8.142;2023-05-07T13:28:08;24.60;98.70
18101;DHT22;9177;49.156;8.142;2023-05-07T13:30:37;24.60;98.20
18101;DHT22;9177;49.156;8.142;2023-05-07T13:33:04;24.60;97.80
18101;DHT22;9177;49.156;8.142;2023-05-07T13:35:31;24.50;98.20
18101;DHT22;9177;49.156;8.142;2023-05-07T13:37:58;24.60;97.80
18101;DHT22;9177;49.156;8.142;2023-05-07T13:40:25;24.40;97.80
18101;DHT22;9177;49.156;8.142;2023-05-07T13:42:52;24.30;97.80
18101;DHT22;9177;49.156;8.142;2023-05-07T13:45:20;24.10;97.80
18101;DHT22;9177;49.156;8.142;2023-05-07T13:47:48;24.00;97.80
18101;DHT22;9177;49.156;8.142;2023-05-07T13:50:16;24.20;97.60
18101;DHT22;9177;49.156;8.142;2023-05-07T13:52:43;24.40;97.50
18101;DHT22;9177;49.156;8.142;2023-05-07T13:55:16;24.50;97.60
18101;DHT22;9177;49.156;8.142;2023-05-07T13:57:42;24.50;97.90
18101;DHT22;9177;49.156;8.142;2023-05-07T14:00:10;24.70;98.20
18101;DHT22;9177;49.156;8.142;2023-05-07T14:02:39;24.80;97.70
18101;DHT22;9177;49.156;8.142;2023-05-07T14:05:08;24.80;97.80
18101;DHT22;9177;49.156;8.142;2023-05-07T14:07:36;24.60;97.80
18101;DHT22;9177;49.156;8.142;2023-05-07T14:10:03;24.40;97.30
18101;DHT22;9177;49.156;8.142;2023-05-07T14:12:31;24.30;97.10
18101;DHT22;9177;49.156;8.142;2023-05-07T14:14:58;24.30;97.20
18101;DHT22;9177;49.156;8.142;2023-05-07T14:17:25;24.40;97.40
18101;DHT22;9177;49.156;8.142;2023-05-07T14:19:52;24.30;97.50
18101;DHT22;9177;49.156;8.142;2023-05-07T14:22:22;24.40;97.50
18101;DHT22;9177;49.156;8.142;2023-05-07T14:24:49;24.50;97.50
18101;DHT22;9177;49.156;8.142;2023-05-07T14:27:16;24.40;97.70
18101;DHT22;9177;49.156;8.142;2023-05-07T14:29:43;24.30;97.90
18101;DHT22;9177;49.156;8.142;2023-05-07T14:32:11;24.40;97.90
18101;DHT22;9177;49.156;8.142;2023-05-07T14:34:38;24.70;97.50
18101;DHT22;9177;49.156;8.142;2023-05-07T14:37:04;24.40;97.90
18101;DHT22;9177;49.156;8.142;2023-05-07T14:39:36;24.20;98.10
18101;DHT22;9177;49.156;8.142;2023-05-07T14:42:03;24.40;97.90
18101;DHT22;9177;49.156;8.142;2023-05-07T14:44:30;24.50;98.20
18101;DHT22;9177;49.156;8.142;2023-05-07T14:46:57;24.40;98.50
18101;DHT22;9177;49.156;8.142;2023-05-07T14:49:24;24.40;98.60
18101;DHT22;9177;49.156;8.142;2023-05-07T14:51:51;24.40;98.80
18101;DHT22;9177;49.156;8.142;2023-05-07T14:54:17;24.60;98.60
18101;DHT22;9177;49.156;8.142;2023-05-07T14:56:46;24.60;98.80
18101;DHT22;9177;49.156;8.142;2023-05-07T14:59:13;24.70;99.00
18101;DHT22;9177;49.156;8.142;2023-05-07T15:01:41;24.80;99.00
18101;DHT22;9177;49.156;8.142;2023-05-07T15:04:11;24.80;99.10
18101;DHT22;9177;49.156;8.142;2023-05-07T15:06:37;24.80;99.50
18101;DHT22;9177;49.156;8.142;2023-05-07T15:09:05;24.70;99.40
18101;DHT22;9177;49.156;8.142;2023-05-07T15:11:33;24.70;98.90
18101;DHT22;9177;49.156;8.142;2023-05-07T15:14:01;24.70;98.20
18101;DHT22;9177;49.156;8.142;2023-05-07T15:16:28;24.70;98.00
18101;DHT22;9177;49.156;8.142;2023-05-07T15:18:55;24.60;96.90
18101;DHT22;9177;49.156;8.142;2023-05-07T15:21:22;24.60;96.70
18101;DHT22;9177;49.156;8.142;2023-05-07T15:23:49;24.50;96.50
18101;DHT22;9177;49.156;8.142;2023-05-07T15:26:16;24.40;96.30
18101;DHT22;9177;49.156;8.142;2023-05-07T15:28:43;24.30;96.10
18101;DHT22;9177;49.156;8.142;2023-05-07T15:31:11;24.20;96.20
18101;DHT22;9177;49.156;8.142;2023-05-07T15:33:38;24.10;95.90
18101;DHT22;9177;49.156;8.142;2023-05-07T15:36:06;23.90;96.00
18101;DHT22;9177;49.156;8.142;2023-05-07T15:38:33;23.70;96.20
18101;DHT22;9177;49.156;8.142;2023-05-07T15:41:00;23.60;96.20
18101;DHT22;9177;49.156;8.142;2023-05-07T15:43:27;23.60;96.40
18101;DHT22;9177;49.156;8.142;2023-05-07T15:45:54;23.50;96.50
18101;DHT22;9177;49.156;8.142;2023-05-07T15:48:22;23.40;96.90
18101;DHT22;9177;49.156;8.142;2023-05-07T15:50:50;23.40;97.30